Lakewood, Texas
Current Conditions -  °F | °C
As of 6:50 PM on Tuesday 21 Oct 2014 (Local Time) from KEFD Reporting Station
Few Clouds Few Clouds  
Wind Chill: 77°   Ceiling: Unl
Heat Index: 79°   Visibility: 10mi
Dew Point: 57°   Wind: 3mph
Humidity: 50%   Direction: 90°E
Pressure: 29.99"   Gusts: NA
Location:  29.7803°N, 94.894°W
Report Text: KEFD 212350Z 09003KT 10SM FEW250 25/14 A2999
Loading
Personal Weather Stations






























Interactive Weather Map
Tropical Storm Tracking
New forecast layout! Learn more

10-Day Weather Forecast

Advertisements
Track Severe Weather on mobile